Time;durP1;ratioP1;P1;durP2;ratioP2;P2;SDS_P1;SDS_P2;PMS_P1;PMS_P2;Temp;Humidity;BMP_temperature;BMP_pressure;BME280_temperature;BME280_humidity;BME280_pressure;Samples;Min_cycle;Max_cycle;Signal;HPM_P1;HPM_P2
2023/10/16 00:01:35;;;;;;;8.63;3.28;;;;;;;;;;7387984;19;20114;-72
2023/10/16 00:04:00;;;;;;;7.28;2.35;;;;;;;;;;7365220;19;20350;-73
2023/10/16 00:06:29;;;;;;;6.20;2.70;;;;;;;;;;7363101;19;20031;-72
2023/10/16 00:08:59;;;;;;;4.43;2.25;;;;;;;;;;7366409;19;20014;-72
2023/10/16 00:11:25;;;;;;;6.10;2.50;;;;;;;;;;7366381;19;20010;-72
2023/10/16 00:13:52;;;;;;;6.20;2.70;;;;;;;;;;7385661;19;20010;-72
2023/10/16 00:16:19;;;;;;;9.18;3.00;;;;;;;;;;7365833;19;20037;-72
2023/10/16 00:18:45;;;;;;;5.47;2.67;;;;;;;;;;7363935;19;20085;-73
2023/10/16 00:21:13;;;;;;;5.00;2.22;;;;;;;;;;7365576;19;20463;-72
2023/10/16 00:23:39;;;;;;;5.93;2.25;;;;;;;;;;7363622;19;20017;-73
2023/10/16 00:26:06;;;;;;;4.97;2.40;;;;;;;;;;7365632;19;20082;-72
2023/10/16 00:28:32;;;;;;;6.03;2.50;;;;;;;;;;7386903;19;20013;-72
2023/10/16 00:30:57;;;;;;;7.13;2.53;;;;;;;;;;7364070;19;20050;-73
2023/10/16 00:33:22;;;;;;;7.13;2.70;;;;;;;;;;7363840;19;20007;-73
2023/10/16 00:35:48;;;;;;;10.95;2.80;;;;;;;;;;7364696;19;20015;-73
2023/10/16 00:38:14;;;;;;;5.55;2.58;;;;;;;;;;7365645;19;19996;-70
2023/10/16 00:43:28;;;;;;;5.22;2.30;;;;;;;;;;7362424;19;20019;-73
2023/10/16 00:46:05;;;;;;;5.38;2.33;;;;;;;;;;7364016;19;20002;-72
2023/10/16 00:48:32;;;;;;;5.30;2.40;;;;;;;;;;7365076;19;20010;-72
2023/10/16 00:51:02;;;;;;;6.93;2.70;;;;;;;;;;7364071;19;20158;-73
2023/10/16 00:53:28;;;;;;;6.32;2.60;;;;;;;;;;7372226;19;20030;-72
2023/10/16 00:55:58;;;;;;;7.07;2.42;;;;;;;;;;7384168;19;20003;-73
2023/10/16 00:58:23;;;;;;;5.80;2.55;;;;;;;;;;7385534;19;20033;-73
2023/10/16 01:00:49;;;;;;;8.68;2.88;;;;;;;;;;7363251;19;20019;-74
2023/10/16 01:03:16;;;;;;;6.68;2.50;;;;;;;;;;7360623;19;20010;-73
2023/10/16 01:05:42;;;;;;;7.50;2.90;;;;;;;;;;7361709;19;20083;-73
2023/10/16 01:08:08;;;;;;;7.63;2.72;;;;;;;;;;7361822;19;20010;-74
2023/10/16 01:10:34;;;;;;;7.95;2.95;;;;;;;;;;7383296;19;20097;-73
2023/10/16 01:13:08;;;;;;;7.78;2.80;;;;;;;;;;7358286;19;20567;-72
2023/10/16 01:15:34;;;;;;;8.20;2.60;;;;;;;;;;7359758;19;20029;-73
2023/10/16 01:17:59;;;;;;;4.63;2.33;;;;;;;;;;7366553;19;20014;-73
2023/10/16 01:20:25;;;;;;;3.95;2.38;;;;;;;;;;7372818;19;20034;-72
2023/10/16 01:22:52;;;;;;;8.40;2.70;;;;;;;;;;7391453;19;20018;-72
2023/10/16 01:25:18;;;;;;;11.68;2.90;;;;;;;;;;7386243;19;20479;-72
2023/10/16 01:27:43;;;;;;;5.38;2.75;;;;;;;;;;7386723;19;20009;-73
2023/10/16 01:30:09;;;;;;;9.05;2.85;;;;;;;;;;7371195;19;20014;-72
2023/10/16 01:32:39;;;;;;;8.40;2.70;;;;;;;;;;7370731;19;20632;-72
2023/10/16 01:35:08;;;;;;;6.63;2.25;;;;;;;;;;7371219;19;20078;-74
2023/10/16 01:37:41;;;;;;;7.22;2.67;;;;;;;;;;7393635;19;20003;-73
2023/10/16 01:40:21;;;;;;;9.57;2.78;;;;;;;;;;7379362;19;20463;-73
2023/10/16 01:42:48;;;;;;;5.85;2.95;;;;;;;;;;7385651;19;20072;-72
2023/10/16 01:45:14;;;;;;;9.20;3.40;;;;;;;;;;7374375;19;20051;-72
2023/10/16 01:47:39;;;;;;;6.10;3.08;;;;;;;;;;7372451;19;20476;-73
2023/10/16 01:50:05;;;;;;;7.55;2.97;;;;;;;;;;7372394;19;19999;-72
2023/10/16 01:52:33;;;;;;;7.68;2.50;;;;;;;;;;7394476;19;19995;-74
2023/10/16 01:54:59;;;;;;;5.53;2.88;;;;;;;;;;7375452;19;20037;-74
2023/10/16 01:57:26;;;;;;;8.50;3.05;;;;;;;;;;7383942;19;20008;-72
2023/10/16 01:59:51;;;;;;;8.52;3.20;;;;;;;;;;7381145;19;20011;-72
2023/10/16 02:02:18;;;;;;;8.25;3.20;;;;;;;;;;7377458;19;20049;-72
2023/10/16 02:04:43;;;;;;;7.00;2.92;;;;;;;;;;7399317;19;19990;-72
2023/10/16 02:07:09;;;;;;;7.97;3.42;;;;;;;;;;7378407;19;20010;-74
2023/10/16 02:09:38;;;;;;;6.93;3.03;;;;;;;;;;7377016;19;20022;-72
2023/10/16 02:12:05;;;;;;;9.85;3.60;;;;;;;;;;7372992;19;20360;-73
2023/10/16 02:14:39;;;;;;;7.32;3.17;;;;;;;;;;7377568;19;20436;-72
2023/10/16 02:17:04;;;;;;;8.98;3.38;;;;;;;;;;7372168;19;20039;-72
2023/10/16 02:19:29;;;;;;;6.13;3.20;;;;;;;;;;7392452;19;19999;-72
2023/10/16 02:21:55;;;;;;;8.35;3.35;;;;;;;;;;7383993;19;20044;-72
2023/10/16 02:24:21;;;;;;;10.73;3.20;;;;;;;;;;7380809;19;20006;-72
2023/10/16 02:26:56;;;;;;;6.55;3.20;;;;;;;;;;7384578;19;20002;-72
2023/10/16 02:29:23;;;;;;;10.05;3.08;;;;;;;;;;7380611;19;20010;-72
2023/10/16 02:31:50;;;;;;;10.32;3.30;;;;;;;;;;7400138;19;20003;-72
2023/10/16 02:34:22;;;;;;;8.20;3.83;;;;;;;;;;7368116;19;20018;-72
2023/10/16 02:36:47;;;;;;;7.93;4.00;;;;;;;;;;7368669;19;20725;-72
2023/10/16 02:39:27;;;;;;;14.35;5.18;;;;;;;;;;7369387;19;20094;-72
2023/10/16 02:41:55;;;;;;;10.75;4.82;;;;;;;;;;7372182;19;20017;-73
2023/10/16 02:44:22;;;;;;;11.27;5.40;;;;;;;;;;7370064;19;20007;-73
2023/10/16 02:46:47;;;;;;;10.88;4.60;;;;;;;;;;7393024;19;20006;-73
2023/10/16 02:49:13;;;;;;;11.25;5.07;;;;;;;;;;7369540;19;20383;-73
2023/10/16 02:51:39;;;;;;;13.40;5.07;;;;;;;;;;7368764;19;20034;-72
2023/10/16 02:54:07;;;;;;;21.60;5.10;;;;;;;;;;7365923;19;20452;-72
2023/10/16 02:56:32;;;;;;;10.68;4.80;;;;;;;;;;7369528;19;20007;-72
2023/10/16 02:59:05;;;;;;;7.75;4.97;;;;;;;;;;7365860;19;20360;-72
2023/10/16 03:01:30;;;;;;;9.95;4.45;;;;;;;;;;7390268;19;20022;-72
2023/10/16 03:03:58;;;;;;;7.07;3.90;;;;;;;;;;7371344;19;20056;-72
2023/10/16 03:06:26;;;;;;;10.55;3.90;;;;;;;;;;7370959;19;20002;-72
2023/10/16 03:08:52;;;;;;;6.65;3.78;;;;;;;;;;7367903;19;20070;-72
2023/10/16 03:11:20;;;;;;;7.93;3.65;;;;;;;;;;7368537;19;20082;-72
2023/10/16 03:13:50;;;;;;;8.90;4.28;;;;;;;;;;7397006;19;20024;-72
2023/10/16 03:16:26;;;;;;;10.10;4.33;;;;;;;;;;7379327;19;20514;-73
2023/10/16 03:19:02;;;;;;;8.15;3.55;;;;;;;;;;7376631;19;20488;-72
2023/10/16 03:21:28;;;;;;;7.05;3.70;;;;;;;;;;7381902;19;20125;-72
2023/10/16 03:23:54;;;;;;;8.50;4.28;;;;;;;;;;7378646;19;20042;-72
2023/10/16 03:26:31;;;;;;;7.15;3.50;;;;;;;;;;7382207;19;20053;-72
2023/10/16 03:28:58;;;;;;;10.55;3.83;;;;;;;;;;7379072;19;20044;-72
2023/10/16 03:31:23;;;;;;;9.00;4.10;;;;;;;;;;7399309;19;20002;-72
2023/10/16 03:33:50;;;;;;;9.65;4.05;;;;;;;;;;7375242;19;20640;-72
2023/10/16 03:36:15;;;;;;;9.40;4.10;;;;;;;;;;7378208;19;20026;-73
2023/10/16 03:38:41;;;;;;;8.75;4.25;;;;;;;;;;7378372;19;20031;-72
2023/10/16 03:41:27;;;;;;;9.50;4.63;;;;;;;;;;7375781;19;20006;-72
2023/10/16 03:43:57;;;;;;;9.52;4.68;;;;;;;;;;7392528;19;20684;-72
2023/10/16 03:46:26;;;;;;;7.57;4.20;;;;;;;;;;7399337;19;20006;-72
2023/10/16 03:48:52;;;;;;;9.63;5.00;;;;;;;;;;7375360;19;20118;-72
2023/10/16 03:51:17;;;;;;;7.70;4.32;;;;;;;;;;7373593;19;20002;-72
2023/10/16 03:53:44;;;;;;;8.15;4.13;;;;;;;;;;7369553;19;20046;-72
2023/10/16 03:56:11;;;;;;;10.27;4.70;;;;;;;;;;7371390;19;20491;-72
2023/10/16 03:58:41;;;;;;;10.82;4.75;;;;;;;;;;7390860;19;20002;-72
2023/10/16 04:01:10;;;;;;;7.25;4.30;;;;;;;;;;7370562;19;20014;-73
2023/10/16 04:03:49;;;;;;;8.88;4.75;;;;;;;;;;7370800;19;20014;-73
2023/10/16 04:06:21;;;;;;;11.27;6.03;;;;;;;;;;7372651;19;20410;-73
2023/10/16 04:08:48;;;;;;;11.00;5.95;;;;;;;;;;7372469;19;20040;-73
2023/10/16 04:11:17;;;;;;;12.55;6.13;;;;;;;;;;7372521;19;20464;-74
2023/10/16 04:13:49;;;;;;;10.90;6.10;;;;;;;;;;7390647;19;20506;-74
2023/10/16 04:18:56;;;;;;;;;;;;;;;;;;7371257;19;19915;-73
2023/10/16 04:24:30;;;;;;;10.80;6.25;;;;;;;;;;7367396;19;20068;-74
2023/10/16 04:29:34;;;;;;;;;;;;;;;;;;7371531;19;20408;-72
2023/10/16 04:32:20;;;;;;;14.88;6.25;;;;;;;;;;7371091;19;19940;-72
2023/10/16 04:34:54;;;;;;;11.80;6.43;;;;;;;;;;7391431;19;20609;-73
2023/10/16 04:37:29;;;;;;;17.45;7.68;;;;;;;;;;7369961;19;20006;-73
2023/10/16 04:47:56;;;;;;;12.55;7.68;;;;;;;;;;7367683;19;20468;-72
2023/10/16 04:50:29;;;;;;;16.58;8.50;;;;;;;;;;7369423;19;20041;-73
2023/10/16 05:01:17;;;;;;;15.45;7.70;;;;;;;;;;7367328;19;20017;-72
2023/10/16 05:13:55;;;;;;;17.52;9.15;;;;;;;;;;7368054;19;20408;-73
2023/10/16 05:16:35;;;;;;;23.55;10.18;;;;;;;;;;7385226;19;20027;-72
2023/10/16 05:19:03;;;;;;;19.85;9.35;;;;;;;;;;7360857;19;20349;-71
2023/10/16 06:16:17;;;;;;;30.10;13.45;;;;;;;;;;7372561;19;20009;-74
2023/10/16 06:18:46;;;;;;;28.50;13.48;;;;;;;;;;7369935;19;20147;-72
2023/10/16 06:21:14;;;;;;;39.95;14.52;;;;;;;;;;7370439;19;20014;-70
2023/10/16 06:23:49;;;;;;;26.38;12.82;;;;;;;;;;7366969;19;20015;-72
2023/10/16 06:26:15;;;;;;;30.67;13.07;;;;;;;;;;7368833;19;19999;-71
2023/10/16 06:28:47;;;;;;;28.90;13.00;;;;;;;;;;7380969;19;20006;-72
2023/10/16 06:31:24;;;;;;;23.88;11.95;;;;;;;;;;7369901;19;20022;-72
2023/10/16 06:33:56;;;;;;;29.15;12.73;;;;;;;;;;7363963;19;20451;-72
2023/10/16 06:36:23;;;;;;;26.17;12.85;;;;;;;;;;7373145;19;19998;-71
2023/10/16 06:38:52;;;;;;;24.08;12.18;;;;;;;;;;7389030;19;20002;-72
2023/10/16 06:41:21;;;;;;;25.55;11.57;;;;;;;;;;7372863;19;20516;-73
2023/10/16 06:43:49;;;;;;;26.10;11.40;;;;;;;;;;7387385;19;20003;-74
2023/10/16 06:46:25;;;;;;;29.42;12.40;;;;;;;;;;7366173;19;20027;-72
2023/10/16 06:48:52;;;;;;;18.80;10.43;;;;;;;;;;7367410;19;20516;-72
2023/10/16 06:51:18;;;;;;;20.52;10.70;;;;;;;;;;7367430;19;20006;-72
2023/10/16 06:53:45;;;;;;;19.73;10.93;;;;;;;;;;7365291;19;20010;-73
2023/10/16 06:56:14;;;;;;;24.58;10.75;;;;;;;;;;7365988;19;20014;-72
2023/10/16 06:58:42;;;;;;;25.75;11.85;;;;;;;;;;7386840;19;20014;-72
2023/10/16 07:01:08;;;;;;;19.85;10.95;;;;;;;;;;7365457;19;20024;-71
2023/10/16 07:03:39;;;;;;;21.10;11.15;;;;;;;;;;7366188;19;20019;-72
2023/10/16 07:06:05;;;;;;;20.20;10.50;;;;;;;;;;7367009;19;20015;-73
2023/10/16 07:08:33;;;;;;;19.75;9.10;;;;;;;;;;7366677;19;20470;-72
2023/10/16 07:11:03;;;;;;;17.70;9.10;;;;;;;;;;7365198;19;20014;-71
2023/10/16 07:13:31;;;;;;;20.30;8.80;;;;;;;;;;7385882;19;20014;-72
2023/10/16 07:15:56;;;;;;;16.30;8.55;;;;;;;;;;7365607;19;20066;-72
2023/10/16 07:18:24;;;;;;;20.52;8.52;;;;;;;;;;7366121;19;20014;-72
2023/10/16 07:20:59;;;;;;;15.20;7.75;;;;;;;;;;7366848;19;20700;-72
2023/10/16 07:23:34;;;;;;;16.50;7.40;;;;;;;;;;7365090;19;20026;-71
2023/10/16 07:26:16;;;;;;;12.48;7.20;;;;;;;;;;7365118;19;20010;-73
2023/10/16 07:28:48;;;;;;;16.02;7.45;;;;;;;;;;7384181;19;20457;-72
2023/10/16 07:31:14;;;;;;;13.65;7.32;;;;;;;;;;7364618;19;20012;-72
2023/10/16 07:33:41;;;;;;;12.43;7.10;;;;;;;;;;7364726;19;20002;-73
2023/10/16 07:36:10;;;;;;;14.57;7.93;;;;;;;;;;7364719;19;20006;-71
2023/10/16 07:38:38;;;;;;;11.00;7.72;;;;;;;;;;7365076;19;20540;-72
2023/10/16 07:41:03;;;;;;;12.18;7.65;;;;;;;;;;7365988;19;20015;-72
2023/10/16 07:43:34;;;;;;;15.65;8.30;;;;;;;;;;7384184;19;20005;-73
2023/10/16 07:48:37;;;;;;;16.50;8.65;;;;;;;;;;7366841;19;20010;-72
2023/10/16 07:51:06;;;;;;;28.70;8.20;;;;;;;;;;7366879;19;20011;-73
2023/10/16 07:53:36;;;;;;;29.58;9.50;;;;;;;;;;7365243;19;20007;-73
2023/10/16 07:56:19;;;;;;;16.48;8.88;;;;;;;;;;7366674;19;20007;-72
2023/10/16 07:58:54;;;;;;;19.95;9.45;;;;;;;;;;7387697;19;20342;-72
2023/10/16 08:01:32;;;;;;;23.90;9.95;;;;;;;;;;7366907;19;19998;-72
2023/10/16 08:03:58;;;;;;;17.60;9.50;;;;;;;;;;7365007;19;20005;-72
2023/10/16 08:06:25;;;;;;;15.25;9.45;;;;;;;;;;7381368;19;20002;-71
2023/10/16 08:11:36;;;;;;;19.73;10.00;;;;;;;;;;7368315;19;20013;-73
2023/10/16 08:14:06;;;;;;;23.65;10.23;;;;;;;;;;7362694;19;20003;-72
2023/10/16 08:16:31;;;;;;;18.48;10.80;;;;;;;;;;7387685;19;20007;-71
2023/10/16 08:18:57;;;;;;;17.33;10.35;;;;;;;;;;7364845;19;20414;-72
2023/10/16 08:21:25;;;;;;;20.88;12.40;;;;;;;;;;7366854;19;20341;-73
2023/10/16 08:23:55;;;;;;;20.58;11.25;;;;;;;;;;7369293;19;19999;-73
2023/10/16 08:26:30;;;;;;;20.10;12.23;;;;;;;;;;7366854;19;20002;-73
2023/10/16 08:29:11;;;;;;;20.08;12.23;;;;;;;;;;7365434;19;19995;-72
2023/10/16 08:31:41;;;;;;;22.73;12.52;;;;;;;;;;7387814;19;20006;-72
2023/10/16 08:34:09;;;;;;;20.42;11.40;;;;;;;;;;7365391;19;20023;-73
2023/10/16 08:36:35;;;;;;;19.30;11.68;;;;;;;;;;7364986;19;20041;-72
2023/10/16 08:39:10;;;;;;;17.02;9.90;;;;;;;;;;7365209;19;20523;-73
2023/10/16 08:41:42;;;;;;;17.73;9.77;;;;;;;;;;7366236;19;20024;-72
2023/10/16 08:44:14;;;;;;;15.95;9.65;;;;;;;;;;7365388;19;19999;-71
2023/10/16 08:46:52;;;;;;;17.45;10.50;;;;;;;;;;7386488;19;20018;-72
2023/10/16 08:49:22;;;;;;;17.33;10.65;;;;;;;;;;7364984;19;20027;-71
2023/10/16 08:51:49;;;;;;;17.08;11.10;;;;;;;;;;7364981;19;20442;-73
2023/10/16 08:56:59;;;;;;;19.92;10.82;;;;;;;;;;7376263;19;20957;-72
2023/10/16 08:59:25;;;;;;;17.30;10.75;;;;;;;;;;7374342;19;20122;-73
2023/10/16 09:01:52;;;;;;;15.32;9.65;;;;;;;;;;7401822;19;20007;-71
2023/10/16 09:04:18;;;;;;;14.55;9.48;;;;;;;;;;7376161;19;20023;-71
2023/10/16 09:06:43;;;;;;;13.43;9.48;;;;;;;;;;7374689;19;20030;-70
2023/10/16 09:09:13;;;;;;;17.95;10.07;;;;;;;;;;7377752;19;20006;-73
2023/10/16 09:11:39;;;;;;;17.15;10.45;;;;;;;;;;7376090;19;20881;-72
2023/10/16 09:14:09;;;;;;;18.35;10.88;;;;;;;;;;7368765;19;20002;-72
2023/10/16 09:16:34;;;;;;;19.02;10.73;;;;;;;;;;7387993;19;20009;-73
2023/10/16 09:19:06;;;;;;;16.20;11.35;;;;;;;;;;7363419;19;20089;-71
2023/10/16 09:21:38;;;;;;;16.10;10.38;;;;;;;;;;7366527;19;20006;-73
2023/10/16 09:24:05;;;;;;;14.20;9.85;;;;;;;;;;7366206;19;20009;-71
2023/10/16 09:26:37;;;;;;;14.88;9.98;;;;;;;;;;7366998;19;20630;-71
2023/10/16 09:29:13;;;;;;;14.50;9.23;;;;;;;;;;7363475;19;20013;-72
2023/10/16 09:31:43;;;;;;;18.63;9.07;;;;;;;;;;7387173;19;19995;-72
2023/10/16 09:34:09;;;;;;;15.40;9.50;;;;;;;;;;7367237;19;20013;-72
2023/10/16 09:36:36;;;;;;;14.10;9.27;;;;;;;;;;7365324;19;20035;-72
2023/10/16 09:39:16;;;;;;;14.90;8.15;;;;;;;;;;7386678;19;20042;-71
2023/10/16 09:41:42;;;;;;;12.98;8.23;;;;;;;;;;7385407;19;20007;-70
2023/10/16 09:44:22;;;;;;;14.85;9.43;;;;;;;;;;7380688;19;20034;-71
2023/10/16 09:46:52;;;;;;;13.98;8.65;;;;;;;;;;7413657;19;20326;-72
2023/10/16 09:49:23;;;;;;;13.35;9.05;;;;;;;;;;7378741;19;20007;-71
2023/10/16 09:51:50;;;;;;;16.42;9.68;;;;;;;;;;7379372;19;20038;-72
2023/10/16 09:54:16;;;;;;;15.65;9.27;;;;;;;;;;7380718;19;20063;-71
2023/10/16 09:56:44;;;;;;;17.33;10.00;;;;;;;;;;7373555;19;20014;-70
2023/10/16 09:59:14;;;;;;;13.07;7.82;;;;;;;;;;7373567;19;20034;-72
2023/10/16 10:01:42;;;;;;;15.23;7.40;;;;;;;;;;7394772;19;20003;-72
2023/10/16 10:04:11;;;;;;;14.05;7.32;;;;;;;;;;7370859;19;20010;-72
2023/10/16 10:06:39;;;;;;;15.07;7.90;;;;;;;;;;7370397;19;20014;-70
2023/10/16 10:14:48;;;;;;;13.48;8.73;;;;;;;;;;7371697;19;20027;-71
2023/10/16 10:17:20;;;;;;;12.75;7.95;;;;;;;;;;7370554;19;20012;-71
2023/10/16 10:19:54;;;;;;;12.55;7.60;;;;;;;;;;7390392;19;20015;-72
2023/10/16 10:22:27;;;;;;;16.05;7.35;;;;;;;;;;7369218;19;20010;-71
2023/10/16 10:25:14;;;;;;;13.02;7.28;;;;;;;;;;7368655;19;20641;-74
2023/10/16 10:27:41;;;;;;;15.80;7.70;;;;;;;;;;7370020;19;20014;-72
2023/10/16 10:30:10;;;;;;;12.02;7.13;;;;;;;;;;7370692;19;20011;-73
2023/10/16 10:32:37;;;;;;;12.75;6.50;;;;;;;;;;7369112;19;20021;-73
2023/10/16 10:35:22;;;;;;;14.63;7.13;;;;;;;;;;7368876;19;20006;-72
2023/10/16 10:37:48;;;;;;;13.55;6.53;;;;;;;;;;7390790;19;20003;-72
2023/10/16 10:40:24;;;;;;;14.50;7.75;;;;;;;;;;7369177;19;20017;-73
2023/10/16 10:42:55;;;;;;;15.48;6.90;;;;;;;;;;7369175;19;20409;-71
2023/10/16 10:45:34;;;;;;;9.57;5.88;;;;;;;;;;7368560;19;20007;-71
2023/10/16 10:48:04;;;;;;;12.70;5.50;;;;;;;;;;7370402;19;20003;-72
2023/10/16 10:50:29;;;;;;;13.75;6.40;;;;;;;;;;7368870;19;20003;-71
2023/10/16 10:52:55;;;;;;;12.80;5.82;;;;;;;;;;7367727;19;20014;-70
2023/10/16 10:55:25;;;;;;;8.93;4.00;;;;;;;;;;7390854;19;19998;-71
2023/10/16 10:58:11;;;;;;;11.63;4.20;;;;;;;;;;7369422;19;20782;-71
2023/10/16 11:00:46;;;;;;;7.45;3.40;;;;;;;;;;7369349;19;20011;-71
2023/10/16 11:03:22;;;;;;;8.10;3.90;;;;;;;;;;7368848;19;20006;-73
2023/10/16 11:05:49;;;;;;;8.93;3.95;;;;;;;;;;7368924;19;20007;-71
2023/10/16 11:08:17;;;;;;;6.50;3.15;;;;;;;;;;7369110;19;19992;-71
2023/10/16 11:10:46;;;;;;;8.82;3.80;;;;;;;;;;7389129;19;20010;-71
2023/10/16 11:13:12;;;;;;;9.73;3.60;;;;;;;;;;7365075;19;20011;-71
2023/10/16 11:15:48;;;;;;;10.40;3.75;;;;;;;;;;7368059;19;20028;-71
2023/10/16 11:18:20;;;;;;;8.25;3.10;;;;;;;;;;7366886;19;20078;-72
2023/10/16 11:20:52;;;;;;;6.18;3.22;;;;;;;;;;7368675;19;20014;-70
2023/10/16 11:23:18;;;;;;;10.32;3.90;;;;;;;;;;7365277;19;20010;-71
2023/10/16 11:25:46;;;;;;;9.40;3.78;;;;;;;;;;7389902;19;20027;-71
2023/10/16 11:28:20;;;;;;;7.68;4.07;;;;;;;;;;7367431;19;20030;-71
2023/10/16 11:30:46;;;;;;;9.13;4.65;;;;;;;;;;7367129;19;20032;-71
2023/10/16 11:33:12;;;;;;;8.50;4.10;;;;;;;;;;7366508;19;20014;-71
2023/10/16 11:35:47;;;;;;;6.60;2.90;;;;;;;;;;7366933;19;20111;-71
2023/10/16 11:38:13;;;;;;;9.70;3.20;;;;;;;;;;7367230;19;20002;-71
2023/10/16 11:40:39;;;;;;;8.85;4.65;;;;;;;;;;7388911;19;20029;-70
2023/10/16 11:43:19;;;;;;;8.82;4.82;;;;;;;;;;7363022;19;20014;-69
2023/10/16 11:45:45;;;;;;;11.75;5.13;;;;;;;;;;7364760;19;20030;-69
2023/10/16 11:50:58;;;;;;;10.98;4.20;;;;;;;;;;7366820;19;20170;-69
2023/10/16 11:53:28;;;;;;;7.85;3.97;;;;;;;;;;7355062;19;20789;-69
2023/10/16 11:55:54;;;;;;;11.20;4.50;;;;;;;;;;7370157;19;20018;-69
2023/10/16 11:58:19;;;;;;;8.63;4.45;;;;;;;;;;7381310;19;19998;-67
2023/10/16 12:00:57;;;;;;;8.77;4.72;;;;;;;;;;7361385;19;20014;-68
2023/10/16 12:03:26;;;;;;;11.35;4.93;;;;;;;;;;7359363;19;20014;-68
2023/10/16 12:05:52;;;;;;;11.15;5.75;;;;;;;;;;7362861;19;20006;-69
2023/10/16 12:08:18;;;;;;;12.40;6.07;;;;;;;;;;7364613;19;20031;-67
2023/10/16 12:10:46;;;;;;;11.30;5.05;;;;;;;;;;7391556;19;20011;-69
2023/10/16 12:13:12;;;;;;;10.88;5.35;;;;;;;;;;7368484;19;20024;-67
2023/10/16 12:15:38;;;;;;;10.10;5.18;;;;;;;;;;7366819;19;20120;-67
2023/10/16 12:18:04;;;;;;;9.20;5.07;;;;;;;;;;7366687;19;20054;-69
2023/10/16 12:20:30;;;;;;;10.43;5.45;;;;;;;;;;7365662;19;20011;-68
2023/10/16 12:22:55;;;;;;;8.88;4.95;;;;;;;;;;7361927;19;20010;-67
2023/10/16 12:25:23;;;;;;;9.38;5.20;;;;;;;;;;7385573;19;20005;-68
2023/10/16 12:27:50;;;;;;;12.90;5.43;;;;;;;;;;7364469;19;20005;-68
2023/10/16 12:30:16;;;;;;;8.43;4.50;;;;;;;;;;7365908;19;20078;-68
2023/10/16 12:32:42;;;;;;;10.60;4.57;;;;;;;;;;7362033;19;20010;-67
2023/10/16 12:35:09;;;;;;;10.10;5.10;;;;;;;;;;7363013;19;20006;-68
2023/10/16 12:37:34;;;;;;;10.57;4.40;;;;;;;;;;7386743;19;20006;-68
2023/10/16 12:40:24;;;;;;;10.32;4.85;;;;;;;;;;7361817;19;20724;-69
2023/10/16 12:42:45;;;;;;;13.13;4.38;;;;;;;;;;7362387;19;20006;-68
2023/10/16 12:45:11;;;;;;;10.75;4.30;;;;;;;;;;7363596;19;20290;-68
2023/10/16 12:47:37;;;;;;;10.80;3.45;;;;;;;;;;7364217;19;20007;-70
2023/10/16 12:50:04;;;;;;;10.20;3.95;;;;;;;;;;7364361;19;20455;-67
2023/10/16 12:52:30;;;;;;;8.18;4.00;;;;;;;;;;7382863;19;20017;-70
2023/10/16 12:54:56;;;;;;;11.48;6.57;;;;;;;;;;7363172;19;20010;-68
2023/10/16 12:57:21;;;;;;;8.60;3.58;;;;;;;;;;7363417;19;20007;-68
2023/10/16 12:59:47;;;;;;;8.43;3.22;;;;;;;;;;7360151;19;20019;-67
2023/10/16 13:02:12;;;;;;;7.43;3.40;;;;;;;;;;7363584;19;20457;-67
2023/10/16 13:04:37;;;;;;;13.68;4.35;;;;;;;;;;7384646;19;20031;-70
2023/10/16 13:07:03;;;;;;;8.45;3.13;;;;;;;;;;7362711;19;20010;-68
2023/10/16 13:09:30;;;;;;;7.80;3.42;;;;;;;;;;7361557;19;20002;-69
2023/10/16 13:11:56;;;;;;;9.73;3.70;;;;;;;;;;7363099;19;20880;-69
2023/10/16 13:14:24;;;;;;;14.00;4.03;;;;;;;;;;7362357;19;20018;-68
2023/10/16 13:16:53;;;;;;;7.85;3.15;;;;;;;;;;7391331;19;20111;-69
2023/10/16 13:19:19;;;;;;;8.82;3.00;;;;;;;;;;7368872;19;20029;-68
2023/10/16 13:21:51;;;;;;;10.70;3.10;;;;;;;;;;7369478;19;20026;-68
2023/10/16 13:24:19;;;;;;;8.57;3.22;;;;;;;;;;7369444;19;20363;-70
2023/10/16 13:26:47;;;;;;;10.75;3.78;;;;;;;;;;7369916;19;20400;-67
2023/10/16 13:29:13;;;;;;;6.43;3.00;;;;;;;;;;7372428;19;20071;-68
2023/10/16 13:31:46;;;;;;;5.53;2.72;;;;;;;;;;7392376;19;20230;-68
2023/10/16 13:34:15;;;;;;;8.48;2.78;;;;;;;;;;7370204;19;20011;-68
2023/10/16 13:37:00;;;;;;;6.35;2.58;;;;;;;;;;7370025;19;20483;-68
2023/10/16 13:39:26;;;;;;;8.88;2.50;;;;;;;;;;7368247;19;20336;-67
2023/10/16 13:41:51;;;;;;;5.55;2.60;;;;;;;;;;7368565;19;20077;-67
2023/10/16 13:44:22;;;;;;;7.47;2.85;;;;;;;;;;7368081;19;19999;-68
2023/10/16 13:46:48;;;;;;;9.18;3.20;;;;;;;;;;7392464;19;19995;-68
2023/10/16 13:49:18;;;;;;;10.68;2.78;;;;;;;;;;7369064;19;20030;-68
2023/10/16 13:51:47;;;;;;;12.00;3.35;;;;;;;;;;7369787;19;20048;-69
2023/10/16 13:54:14;;;;;;;7.38;3.00;;;;;;;;;;7363586;19;20090;-69
2023/10/16 13:56:40;;;;;;;5.47;2.40;;;;;;;;;;7367631;19;20042;-69
2023/10/16 13:59:06;;;;;;;9.60;3.65;;;;;;;;;;7366235;19;20037;-67
2023/10/16 14:01:32;;;;;;;6.80;3.13;;;;;;;;;;7391944;19;20006;-71
2023/10/16 14:03:58;;;;;;;12.35;2.75;;;;;;;;;;7367205;19;20007;-69
2023/10/16 14:06:25;;;;;;;8.75;2.80;;;;;;;;;;7368779;19;20018;-69
2023/10/16 14:08:51;;;;;;;11.40;2.22;;;;;;;;;;7367573;19;20126;-68
2023/10/16 14:11:17;;;;;;;10.20;2.60;;;;;;;;;;7368170;19;20014;-71
2023/10/16 14:13:42;;;;;;;5.53;2.00;;;;;;;;;;7387300;19;20337;-69
2023/10/16 14:16:11;;;;;;;8.63;2.45;;;;;;;;;;7369540;19;20065;-71
2023/10/16 14:18:44;;;;;;;5.57;2.53;;;;;;;;;;7367501;19;20044;-70
2023/10/16 14:21:13;;;;;;;8.38;2.20;;;;;;;;;;7370059;19;20010;-70
2023/10/16 14:23:43;;;;;;;6.75;2.38;;;;;;;;;;7364226;19;20503;-69
2023/10/16 14:26:24;;;;;;;7.63;2.25;;;;;;;;;;7367080;19;20024;-70
2023/10/16 14:28:59;;;;;;;5.63;2.17;;;;;;;;;;7390048;19;20316;-70
2023/10/16 14:31:26;;;;;;;7.95;2.50;;;;;;;;;;7369274;19;20281;-70
2023/10/16 14:33:53;;;;;;;5.00;2.17;;;;;;;;;;7366324;19;20118;-68
2023/10/16 14:36:19;;;;;;;6.18;2.25;;;;;;;;;;7368201;19;19998;-70
2023/10/16 14:38:45;;;;;;;6.93;1.98;;;;;;;;;;7367682;19;19999;-70
2023/10/16 14:41:15;;;;;;;4.85;2.08;;;;;;;;;;7367760;19;20062;-70
2023/10/16 14:43:41;;;;;;;10.95;2.10;;;;;;;;;;7386259;19;20005;-70
2023/10/16 14:46:10;;;;;;;6.70;1.92;;;;;;;;;;7367713;19;20006;-72
2023/10/16 14:48:37;;;;;;;6.30;1.80;;;;;;;;;;7367984;19;20006;-70
2023/10/16 14:51:04;;;;;;;8.23;1.95;;;;;;;;;;7368152;19;20023;-70
2023/10/16 14:53:30;;;;;;;4.45;2.00;;;;;;;;;;7364377;19;20027;-70
2023/10/16 14:55:56;;;;;;;5.00;1.60;;;;;;;;;;7367870;19;19995;-69
2023/10/16 14:58:23;;;;;;;6.57;1.92;;;;;;;;;;7389506;19;20006;-69
2023/10/16 15:00:56;;;;;;;5.05;1.75;;;;;;;;;;7366845;19;20006;-70
2023/10/16 15:03:21;;;;;;;4.90;1.67;;;;;;;;;;7367473;19;20078;-69
2023/10/16 15:05:49;;;;;;;4.38;1.80;;;;;;;;;;7367237;19;20056;-70
2023/10/16 15:08:15;;;;;;;5.05;1.55;;;;;;;;;;7368755;19;20765;-69
2023/10/16 15:10:44;;;;;;;6.85;1.85;;;;;;;;;;7389291;19;19999;-69
2023/10/16 15:13:14;;;;;;;7.82;2.28;;;;;;;;;;7366517;19;20007;-70
2023/10/16 15:15:41;;;;;;;7.63;1.80;;;;;;;;;;7366924;19;20011;-70
2023/10/16 15:18:09;;;;;;;7.07;1.73;;;;;;;;;;7367378;19;20014;-71
2023/10/16 15:20:34;;;;;;;7.35;1.67;;;;;;;;;;7366060;19;20010;-69
2023/10/16 15:23:00;;;;;;;5.35;2.08;;;;;;;;;;7365172;19;20015;-69
2023/10/16 15:25:25;;;;;;;4.70;1.52;;;;;;;;;;7390343;19;19999;-70
2023/10/16 15:27:50;;;;;;;6.55;2.00;;;;;;;;;;7367932;19;20006;-70
2023/10/16 15:30:17;;;;;;;5.85;1.63;;;;;;;;;;7371159;19;20538;-69
2023/10/16 15:32:43;;;;;;;4.97;1.70;;;;;;;;;;7369497;19;20011;-72
2023/10/16 15:35:09;;;;;;;6.88;1.85;;;;;;;;;;7368474;19;20006;-68
2023/10/16 15:37:40;;;;;;;6.55;1.80;;;;;;;;;;7390547;19;20015;-71
2023/10/16 15:40:07;;;;;;;5.22;1.90;;;;;;;;;;7367858;19;20010;-70
2023/10/16 15:42:32;;;;;;;4.82;1.73;;;;;;;;;;7366256;19;20049;-69
2023/10/16 15:45:00;;;;;;;7.20;1.88;;;;;;;;;;7365891;19;20029;-69
2023/10/16 15:47:28;;;;;;;4.53;1.55;;;;;;;;;;7366674;19;20010;-69
2023/10/16 15:49:54;;;;;;;5.07;1.60;;;;;;;;;;7381358;19;20422;-69
2023/10/16 15:52:21;;;;;;;10.00;1.90;;;;;;;;;;7386424;19;20002;-71
2023/10/16 15:54:47;;;;;;;4.30;1.45;;;;;;;;;;7366354;19;20006;-70
2023/10/16 15:57:13;;;;;;;7.55;1.60;;;;;;;;;;7368284;19;20014;-69
2023/10/16 15:59:39;;;;;;;9.93;1.90;;;;;;;;;;7368646;19;20389;-69
2023/10/16 16:02:05;;;;;;;5.18;1.52;;;;;;;;;;7368855;19;20575;-69
2023/10/16 16:04:30;;;;;;;8.57;1.88;;;;;;;;;;7386954;19;20039;-69
2023/10/16 16:07:01;;;;;;;8.07;1.80;;;;;;;;;;7364526;19;20072;-69
2023/10/16 16:09:27;;;;;;;7.57;1.60;;;;;;;;;;7364962;19;19998;-69
2023/10/16 16:11:52;;;;;;;2.88;1.48;;;;;;;;;;7366383;19;20015;-69
2023/10/16 16:14:17;;;;;;;4.45;1.70;;;;;;;;;;7366634;19;20708;-69
2023/10/16 16:16:44;;;;;;;3.95;1.73;;;;;;;;;;7384686;19;20018;-69
2023/10/16 16:19:09;;;;;;;5.50;1.67;;;;;;;;;;7364814;19;19998;-69
2023/10/16 16:21:37;;;;;;;5.63;1.75;;;;;;;;;;7364406;19;20570;-71
2023/10/16 16:24:03;;;;;;;3.97;1.50;;;;;;;;;;7365739;19;20014;-69
2023/10/16 16:26:28;;;;;;;8.27;1.80;;;;;;;;;;7366799;19;20040;-68
2023/10/16 16:28:54;;;;;;;5.55;1.40;;;;;;;;;;7375476;19;20452;-72
2023/10/16 16:31:21;;;;;;;7.97;1.63;;;;;;;;;;7385122;19;20074;-75
2023/10/16 16:33:50;;;;;;;6.55;1.85;;;;;;;;;;7371840;19;20010;-75